Nearby METAR Reports

 

KTTN - Trenton, New Jersey, USA
Distance from station: W 8mi, 12km
Updated: Sun, 03-Jul-2022 12:53am EDT
Few Clouds
Few Clouds
 Wind from WNW
Wind: WNW 3 mph , 6 km/h
Temperature: 75°F , 24°C
Dew Point: 66°F , 19°C
Humidity: 74%
Barometer: 29.95 inHg , 1014.2 hPa
Clouds: Few Clouds
Visibility: 10 miles , 16 km
Cloud details: Few Clouds 9000 ft
2022/07/03 04:53 KTTN 030453Z AUTO 30003KT 10SM FEW090 24/19 A2995 RMK AO2 SLP134 T02390194 403280239
KWRI - Wrightst/Mcguire, New Jersey, USA
Distance from station: SSE 18mi, 29km
Updated: Sat, 02-Jul-2022 11:56pm EDT
Few Clouds
Few Clouds
 Wind from SW
Wind: SW 8 mph , 13 km/h
Temperature: 75°F , 24°C
Dew Point: 70°F , 21°C
Humidity: 83%
Barometer: 29.96 inHg , 1014.6 hPa
Clouds: Few Clouds
Visibility: 10 miles , 16 km
Cloud details: Few Clouds 5000 ft
2022/07/03 03:56 KWRI 030356Z AUTO 23007KT 10SM FEW050 24/21 A2996 RMK AO2 SLP144 T02420209 TSNO $
KPNE - Philadelphia/Ne, Pennsylvania, USA
Distance from station: SW 22mi, 35km
Updated: Sun, 03-Jul-2022 12:54am EDT
Mostly cloudy
Mostly cloudy
 Wind from WSW
Wind: WSW 6 mph , 9 km/h
Temperature: 77°F , 25°C
Dew Point: 68°F , 20°C
Humidity: 74%
Barometer: 29.96 inHg , 1014.6 hPa
Clouds: Mostly cloudy
Visibility: 10 miles , 16 km
Cloud details: Partly cloudy 7000 ft
Mostly cloudy 11000 ft
2022/07/03 04:54 KPNE 030454Z AUTO 25005KT 10SM SCT070 BKN110 25/20 A2996 RMK AO2 SLP143 T02500200 403330250
 
KDYL - Doylestown, Pennsylvania, USA
Distance from station: W 24mi, 38km
Updated: Sun, 03-Jul-2022 12:54am EDT
Partly cloudy
Partly cloudy
 Wind from WSW
Wind: WSW 5 mph , 7 km/h
Temperature: 75°F , 24°C
Dew Point: 66°F , 19°C
Humidity: 74%
Barometer: 29.96 inHg , 1014.6 hPa
Clouds: Partly cloudy
Visibility: 10 miles , 16 km
Cloud details: Few Clouds 9000 ft
Partly cloudy 11000 ft
2022/07/03 04:54 KDYL 030454Z AUTO 24004KT 10SM FEW090 SCT110 24/19 A2996 RMK AO2 SLP138 T02390189 403220239
KSMQ - Somerville, New Jersey, USA
Distance from station: 0 24mi, 39km
Updated: Sun, 03-Jul-2022 12:53am EDT
Few Clouds
Few Clouds
 Wind from NW
Wind: NW 3 mph , 6 km/h
Temperature: 75°F , 24°C
Dew Point: 68°F , 20°C
Humidity: 78%
Barometer: 29.94 inHg , 1013.9 hPa
Clouds: Few Clouds
Visibility: 10 miles , 16 km
Cloud details: Few Clouds 5500 ft
2022/07/03 04:53 KSMQ 030453Z AUTO 32003KT 10SM FEW055 24/20 A2994 RMK AO2 SLP135 T02390200 403280217
KVAY - Mount Holly, New Jersey, USA
Distance from station: SSW 24mi, 39km
Updated: Sun, 03-Jul-2022 12:54am EDT
Few Clouds
Few Clouds
 Wind from SW
Wind: SW 3 mph , 6 km/h
Temperature: 75°F , 24°C
Dew Point: 72°F , 22°C
Humidity: 89%
Barometer: 29.95 inHg , 1014.2 hPa
Clouds: Few Clouds
Visibility: 10 miles , 16 km
Cloud details: Few Clouds 12000 ft
2022/07/03 04:54 KVAY 030454Z AUTO 22003KT 10SM FEW120 24/22 A2995 RMK AO2 RAE21 SLP141 P0000 T02440217 403440244
 
KNEL - Lakehurst Nas, New Jersey, USA
Distance from station: SE 25mi, 40km
Updated: Sun, 03-Jul-2022 1:00am EDT
Mostly cloudy
Mostly cloudy
 Wind from W
Wind: W 8 mph , 13 km/h
Temperature: 75°F , 24°C
Dew Point: 72°F , 22°C
Humidity: 89%
Barometer: 29.94 inHg , 1013.9 hPa
Clouds: Mostly cloudy
Visibility: 10 miles , 16 km
Cloud details: Mostly cloudy 12000 ft
2022/07/03 05:00 KNEL 030500Z AUTO 28007KT 10SM BKN120 24/22 A2994 RMK AO2 RAB0430E0442 SLP138 P0000 T02440217 402440244 $
KBLM - Belmar/Farmdale, New Jersey, USA
Distance from station: ESE 30mi, 48km
Updated: Sun, 03-Jul-2022 12:56am EDT
Partly cloudy
Partly cloudy
 Wind from WSW
Wind: WSW 6 mph , 9 km/h
Temperature: 75°F , 24°C
Dew Point: 75°F , 24°C
Humidity: 100%
Barometer: 29.97 inHg , 1014.9 hPa
Clouds: Partly cloudy
Visibility: 10 miles , 16 km
Cloud details: Few Clouds 6000 ft
Partly cloudy 9500 ft
2022/07/03 04:56 KBLM 030456Z AUTO 24005KT 10SM FEW060 SCT095 24/24 A2997 RMK AO2 SLP146 T02390239 403330233
KMJX - Toms River, New Jersey, USA
Distance from station: SE 30mi, 49km
Updated: Tue, 03-May-2022 9:08am EDT
NOT Current
Overcast
Overcast
 Wind from ENE
Wind: ENE 9 mph , 15 km/h
Temperature: 55°F , 13°C
Dew Point: 50°F , 10°C
Humidity: 82%
Barometer: 30.18 inHg , 1022 hPa
Clouds: Overcast
Visibility: 10 miles , 16 km
Cloud details: Overcast 1100 ft
2022/05/03 13:08 KMJX 031308Z AUTO 06008KT 10SM OVC011 13/10 A3018 RMK AO2
 
KLOM - Philly Wings F, Pennsylvania, USA
Distance from station: WSW 33mi, 52km
Updated: Sun, 03-Jul-2022 12:55am EDT
Mostly cloudy
Mostly cloudy
 Wind from calm
Wind: Calm
Temperature: 72°F , 22°C
Dew Point: 72°F , 22°C
Humidity: 100%
Barometer: 29.97 inHg , 1014.9 hPa
Clouds: Mostly cloudy
Visibility: 10 miles , 16 km
Cloud details: Partly cloudy 7000 ft
Partly cloudy 7500 ft
Mostly cloudy 12000 ft
2022/07/03 04:55 KLOM 030455Z AUTO 00000KT 10SM SCT070 SCT075 BKN120 22/22 A2997 RMK AO2 T02240218
KCKZ - Perkasie, Pennsylvania, USA
Distance from station: WNW 33mi, 53km
Updated: Sun, 03-Jul-2022 12:55am EDT
Mostly cloudy
Mostly cloudy
 Wind from calm
Wind: Calm
Temperature: 72°F , 22°C
Dew Point: 72°F , 22°C
Humidity: 100%
Barometer: 29.98 inHg , 1015.2 hPa
Clouds: Mostly cloudy
Visibility: 10 miles , 16 km
Cloud details: Mostly cloudy 10000 ft
2022/07/03 04:55 KCKZ 030455Z AUTO 00000KT 10SM BKN100 22/22 A2998 RMK AO2
KLDJ - Linden, New Jersey, USA
Distance from station: NE 33mi, 53km
Updated: Sun, 03-Jul-2022 12:55am EDT
Mostly cloudy
Mostly cloudy
 Wind from W
Wind: W 6 mph , 9 km/h
Temperature: 81°F , 27°C
Heat Index: 83°F , 28°C
Dew Point: 64°F , 18°C
Humidity: 58%
Barometer: 29.95 inHg , 1014.2 hPa
Clouds: Mostly cloudy
Visibility: 10 miles , 16 km
Cloud details: Mostly cloudy 6000 ft
2022/07/03 04:55 KLDJ 030455Z AUTO 28005KT 10SM BKN060 27/18 A2995 RMK AO2 T02650180
 
KMMU - Morristown Muni, New Jersey, USA
Distance from station: NNE 38mi, 62km
Updated: Sun, 03-Jul-2022 12:55am EDT
Mostly cloudy
Mostly cloudy
 Wind from calm
Wind: Calm
Temperature: 72°F , 22°C
Dew Point: 68°F , 20°C
Humidity: 88%
Barometer: 29.95 inHg , 1014.2 hPa
Clouds: Mostly cloudy
Visibility: 10 miles , 16 km
Cloud details: Partly cloudy 4300 ft
Mostly cloudy 5000 ft
2022/07/03 04:55 KMMU 030455Z AUTO 00000KT 10SM SCT043 BKN050 22/20 A2995 RMK AO2
KEWR - Newark, New Jersey, USA
Distance from station: NE 39mi, 63km
Updated: Sun, 03-Jul-2022 12:51am EDT
Mostly cloudy
Mostly cloudy
 Wind from SW
Wind: SW 9 mph , 15 km/h
Temperature: 82°F , 28°C
Heat Index: 84°F , 29°C
Dew Point: 66°F , 19°C
Humidity: 58%
Barometer: 29.93 inHg , 1013.5 hPa
Clouds: Mostly cloudy
Visibility: 10 miles , 16 km
Cloud details: Mostly cloudy 6000 ft
Mostly cloudy 25000 ft
2022/07/03 04:51 KEWR 030451Z 22008KT 10SM BKN060 BKN250 28/19 A2993 RMK AO2 SLP136 T02830189 403560261
KUKT - Quakertown Arp, Pennsylvania, USA
Distance from station: WNW 39mi, 63km
Updated: Sun, 03-Jul-2022 12:55am EDT
Clear
Clear
 Wind from calm
Wind: Calm
Temperature: 72°F , 22°C
Dew Point: 72°F , 22°C
Humidity: 100%
Barometer: 29.97 inHg , 1014.9 hPa
Clouds: Clear
Visibility: 10 miles , 16 km
2022/07/03 04:55 KUKT 030455Z AUTO 00000KT 10SM CLR 22/22 A2997 RMK A01
 
KPHL - Philadelphia, Pennsylvania, USA
Distance from station: SW 40mi, 65km
Updated: Sun, 03-Jul-2022 12:54am EDT
Mostly cloudy
Mostly cloudy
 Wind from WSW
Wind: WSW 8 mph , 13 km/h
Temperature: 75°F , 24°C
Dew Point: 72°F , 22°C
Humidity: 89%
Barometer: 29.95 inHg , 1014.2 hPa
Clouds: Mostly cloudy
Visibility: 10 miles , 16 km
Cloud details: Partly cloudy 8500 ft
Mostly cloudy 12000 ft
2022/07/03 04:54 KPHL 030454Z 25007KT 10SM SCT085 BKN120 24/22 A2995 RMK AO2 RAE51 SLP142 P0000 T02390222 403440239 $
KJRB - Manhattan/Dwntwn, New York, USA
Distance from station: NE 46mi, 74km
Updated: Sun, 03-Jul-2022 12:56am EDT
Partly cloudy
Partly cloudy
 Wind from SW
Wind: SW 3 mph , 6 km/h
Temperature: 75°F , 24°C
Dew Point: 68°F , 20°C
Humidity: 78%
Barometer: 29.95 inHg , 1014.2 hPa
Clouds: Partly cloudy
Visibility: 10 miles , 16 km
Cloud details: Partly cloudy 6500 ft
2022/07/03 04:56 KJRB 030456Z AUTO 23003KT 10SM SCT065 24/20 A2995 RMK AO2 SLP140 T02440200 403170244
KPTW - Pottstown, Pennsylvania, USA
Distance from station: W 46mi, 74km
Updated: Sun, 03-Jul-2022 12:54am EDT
Overcast
Overcast
 Wind from calm
Wind: Calm
Temperature: 73°F , 23°C
Dew Point: 66°F , 19°C
Humidity: 78%
Barometer: 29.98 inHg , 1015.2 hPa
Clouds: Overcast
Visibility: 10 miles , 16 km
Cloud details: Overcast 10000 ft
2022/07/03 04:54 KPTW 030454Z AUTO 00000KT 10SM OVC100 23/19 A2998 RMK AO2 SLP148 T02280194 403110222
 
KCDW - Caldwell, New Jersey, USA
Distance from station: NNE 47mi, 76km
Updated: Sun, 03-Jul-2022 12:53am EDT
Mostly cloudy
Mostly cloudy
 Wind from calm
Wind: Calm
Temperature: 75°F , 24°C
Dew Point: 66°F , 19°C
Humidity: 74%
Barometer: 29.95 inHg , 1014.2 hPa
Clouds: Mostly cloudy
Visibility: 10 miles , 16 km
Cloud details: Mostly cloudy 5000 ft
2022/07/03 04:53 KCDW 030453Z AUTO 00000KT 10SM BKN050 24/19 A2995 RMK AO2 SLP145 T02390194 403220239
KXLL - Allentown Queen, Pennsylvania, USA
Distance from station: WNW 47mi, 76km
Updated: Sun, 03-Jul-2022 12:55am EDT
Clear
Clear
 Wind from calm
Wind: Calm
Temperature: 73°F , 23°C
Dew Point: 68°F , 20°C
Humidity: 83%
Barometer: 29.98 inHg , 1015.2 hPa
Clouds: Clear
Visibility: 10 miles , 16 km
2022/07/03 04:55 KXLL 030455Z AUTO 00000KT 10SM CLR 23/20 A2998 RMK AO2